createdAt,value
2022-11-30T00:00:17.390Z,8.82
2022-11-30T00:01:17.388Z,8.75
2022-11-30T00:02:17.465Z,8.82
2022-11-30T00:03:17.564Z,8.74
2022-11-30T00:04:17.498Z,8.84
2022-11-30T00:05:17.539Z,8.78
2022-11-30T00:06:17.600Z,8.74
2022-11-30T00:07:17.637Z,8.82
2022-11-30T00:08:17.670Z,8.89
2022-11-30T00:09:17.700Z,8.96
2022-11-30T00:10:17.700Z,8.97
2022-11-30T00:11:17.708Z,8.96
2022-11-30T00:12:17.721Z,8.92
2022-11-30T00:13:17.721Z,8.96
2022-11-30T00:14:17.782Z,8.89
2022-11-30T00:15:17.802Z,8.86
2022-11-30T00:16:17.893Z,8.96
2022-11-30T00:17:17.837Z,9.00
2022-11-30T00:18:17.844Z,9.00
2022-11-30T00:19:17.849Z,9.02
2022-11-30T00:20:17.859Z,9.13
2022-11-30T00:21:17.870Z,9.16
2022-11-30T00:22:17.903Z,9.08
2022-11-30T00:23:17.895Z,9.11
2022-11-30T00:24:17.946Z,9.03
2022-11-30T00:25:17.972Z,9.00
2022-11-30T00:26:17.976Z,8.93
2022-11-30T00:27:18.008Z,8.92
2022-11-30T00:28:18.015Z,8.99
2022-11-30T00:29:18.056Z,8.84
2022-11-30T00:30:18.135Z,8.86
2022-11-30T00:31:18.412Z,8.90
2022-11-30T00:32:18.250Z,8.92
2022-11-30T00:33:18.256Z,8.97
2022-11-30T00:34:18.276Z,9.05
2022-11-30T00:35:18.276Z,9.03
2022-11-30T00:36:18.276Z,8.97
2022-11-30T00:37:18.267Z,8.92
2022-11-30T00:38:18.318Z,8.81
2022-11-30T00:39:18.387Z,8.84
2022-11-30T00:40:18.388Z,8.92
2022-11-30T00:41:18.399Z,8.99
2022-11-30T00:42:18.411Z,8.95
2022-11-30T00:43:18.439Z,8.93
2022-11-30T00:44:18.484Z,9.03
2022-11-30T00:45:18.511Z,9.03
2022-11-30T00:46:18.600Z,9.00
2022-11-30T00:47:18.558Z,8.96
2022-11-30T00:48:18.579Z,8.93
2022-11-30T00:49:18.601Z,9.00
2022-11-30T00:50:18.600Z,9.03
2022-11-30T00:51:18.653Z,9.02
2022-11-30T00:52:18.642Z,9.08
2022-11-30T00:53:18.650Z,9.08
2022-11-30T00:54:18.650Z,9.12
2022-11-30T00:55:18.671Z,9.15
2022-11-30T00:56:18.661Z,9.19
2022-11-30T00:57:18.663Z,9.24
2022-11-30T00:58:18.661Z,9.26
2022-11-30T00:59:18.653Z,9.22
2022-11-30T01:00:18.658Z,9.16
2022-11-30T01:01:18.720Z,9.13
2022-11-30T01:02:18.771Z,9.13
2022-11-30T01:03:18.745Z,9.03
2022-11-30T01:04:18.813Z,8.96
2022-11-30T01:05:18.842Z,8.86
2022-11-30T01:06:18.853Z,8.92
2022-11-30T01:07:18.871Z,8.97
2022-11-30T01:08:18.854Z,8.87
2022-11-30T01:09:18.887Z,8.81
2022-11-30T01:10:18.924Z,8.74
2022-11-30T01:11:18.934Z,8.77
2022-11-30T01:12:18.935Z,8.90
2022-11-30T01:13:18.955Z,8.93
2022-11-30T01:14:18.963Z,9.02
2022-11-30T01:15:18.955Z,9.02
2022-11-30T01:16:18.998Z,9.03
2022-11-30T01:17:18.946Z,9.02
2022-11-30T01:18:19.016Z,8.90
2022-11-30T01:19:19.016Z,8.75
2022-11-30T01:20:19.020Z,8.87
2022-11-30T01:21:19.027Z,8.87
2022-11-30T01:22:19.037Z,8.89
2022-11-30T01:23:19.041Z,8.99
2022-11-30T01:24:19.048Z,9.02
2022-11-30T01:25:19.047Z,9.02
2022-11-30T01:26:19.060Z,8.99
2022-11-30T01:27:19.051Z,8.90
2022-11-30T01:28:19.129Z,8.78
2022-11-30T01:29:19.160Z,8.75
2022-11-30T01:30:19.161Z,8.79
2022-11-30T01:31:19.258Z,8.77
2022-11-30T01:32:19.307Z,8.81
2022-11-30T01:33:19.219Z,8.78
2022-11-30T01:34:19.240Z,8.74
2022-11-30T01:35:19.258Z,8.77
2022-11-30T01:36:19.263Z,8.79
2022-11-30T01:37:19.302Z,8.81
2022-11-30T01:38:19.359Z,8.74
2022-11-30T01:39:19.362Z,8.74
2022-11-30T01:40:19.392Z,8.81
2022-11-30T01:41:19.368Z,8.81
2022-11-30T01:42:19.367Z,8.81
2022-11-30T01:43:19.375Z,8.86
2022-11-30T01:44:20.339Z,8.93
2022-11-30T01:45:19.412Z,8.99
2022-11-30T01:46:19.457Z,8.90
2022-11-30T01:47:19.463Z,8.92
2022-11-30T01:48:19.473Z,8.86
2022-11-30T01:49:19.474Z,8.79
2022-11-30T01:50:19.503Z,8.84
2022-11-30T01:51:19.503Z,8.84
2022-11-30T01:52:19.523Z,8.87
2022-11-30T01:53:19.544Z,8.64
2022-11-30T01:54:19.526Z,8.69
2022-11-30T01:55:19.536Z,8.72
2022-11-30T01:56:19.534Z,8.72
2022-11-30T01:57:19.545Z,8.72
2022-11-30T01:58:19.567Z,8.72
2022-11-30T01:59:19.575Z,8.78
2022-11-30T02:00:19.580Z,8.81
2022-11-30T02:01:19.671Z,8.68
2022-11-30T02:02:19.639Z,8.60
2022-11-30T02:03:19.666Z,8.64
2022-11-30T02:04:19.697Z,8.71
2022-11-30T02:05:19.704Z,8.74
2022-11-30T02:06:19.707Z,8.78
2022-11-30T02:07:19.849Z,8.63
2022-11-30T02:08:19.862Z,8.53
2022-11-30T02:09:19.774Z,8.49
2022-11-30T02:10:19.817Z,8.49
2022-11-30T02:11:19.889Z,8.50
2022-11-30T02:12:19.882Z,8.52
2022-11-30T02:13:19.878Z,8.53
2022-11-30T02:14:19.878Z,8.52
2022-11-30T02:15:19.889Z,8.50
2022-11-30T02:16:19.921Z,8.56
2022-11-30T02:17:19.912Z,8.52
2022-11-30T02:18:19.889Z,8.54
2022-11-30T02:19:19.910Z,8.52
2022-11-30T02:20:19.957Z,8.41
2022-11-30T02:21:19.971Z,8.46
2022-11-30T02:22:20.025Z,8.42
2022-11-30T02:23:20.030Z,8.44
2022-11-30T02:24:20.031Z,8.44
2022-11-30T02:25:20.033Z,8.52
2022-11-30T02:26:20.072Z,8.42
2022-11-30T02:27:20.082Z,8.39
2022-11-30T02:28:20.080Z,8.46
2022-11-30T02:29:20.084Z,8.50
2022-11-30T02:30:20.087Z,8.57
2022-11-30T02:31:20.182Z,8.66
2022-11-30T02:32:20.093Z,8.66
2022-11-30T02:33:20.094Z,8.68
2022-11-30T02:34:20.103Z,8.71
2022-11-30T02:35:20.134Z,8.71
2022-11-30T02:36:20.133Z,8.68
2022-11-30T02:37:20.135Z,8.59
2022-11-30T02:38:20.165Z,8.49
2022-11-30T02:39:20.164Z,8.53
2022-11-30T02:40:20.183Z,8.49
2022-11-30T02:41:20.185Z,8.54
2022-11-30T02:42:20.202Z,8.63
2022-11-30T02:43:20.207Z,8.61
2022-11-30T02:44:20.216Z,8.64
2022-11-30T02:45:20.229Z,8.66
2022-11-30T02:46:20.285Z,8.56
2022-11-30T02:47:20.291Z,8.53
2022-11-30T02:48:20.286Z,8.64
2022-11-30T02:49:20.304Z,8.68
2022-11-30T02:50:20.307Z,8.57
2022-11-30T02:51:20.330Z,8.64
2022-11-30T02:52:20.346Z,8.68
2022-11-30T02:53:20.350Z,8.69
2022-11-30T02:54:20.347Z,8.66
2022-11-30T02:55:20.361Z,8.68
2022-11-30T02:56:20.378Z,8.60
2022-11-30T02:57:20.459Z,8.45
2022-11-30T02:58:20.460Z,8.49
2022-11-30T02:59:20.489Z,8.41
2022-11-30T03:00:20.499Z,8.41
2022-11-30T03:01:20.531Z,8.34
2022-11-30T03:02:20.604Z,8.34
2022-11-30T03:03:20.530Z,8.27
2022-11-30T03:04:20.539Z,8.31
2022-11-30T03:05:20.534Z,8.24
2022-11-30T03:06:20.540Z,8.27
2022-11-30T03:07:20.650Z,8.34
2022-11-30T03:08:20.602Z,8.31
2022-11-30T03:09:20.601Z,8.36
2022-11-30T03:10:20.662Z,8.32
2022-11-30T03:11:20.691Z,8.28
2022-11-30T03:12:20.741Z,8.32
2022-11-30T03:13:20.765Z,8.32
2022-11-30T03:14:20.773Z,8.35
2022-11-30T03:15:20.762Z,8.36
2022-11-30T03:16:20.813Z,8.26
2022-11-30T03:17:20.840Z,8.18
2022-11-30T03:18:20.888Z,8.17
2022-11-30T03:19:20.904Z,8.20
2022-11-30T03:20:20.885Z,8.23
2022-11-30T03:21:20.886Z,8.39
2022-11-30T03:22:20.885Z,8.41
2022-11-30T03:23:20.885Z,8.36
2022-11-30T03:24:20.925Z,8.36
2022-11-30T03:25:20.946Z,8.38
2022-11-30T03:26:20.918Z,8.26
2022-11-30T03:27:20.935Z,8.24
2022-11-30T03:28:20.939Z,8.27
2022-11-30T03:29:20.926Z,8.32
2022-11-30T03:30:20.985Z,8.28
2022-11-30T03:31:21.054Z,8.18
2022-11-30T03:32:21.036Z,8.16
2022-11-30T03:33:21.066Z,8.18
2022-11-30T03:34:21.070Z,8.21
2022-11-30T03:35:21.085Z,8.24
2022-11-30T03:36:21.088Z,8.24
2022-11-30T03:37:21.106Z,8.23
2022-11-30T03:38:21.118Z,8.26
2022-11-30T03:39:21.109Z,8.28
2022-11-30T03:40:21.128Z,8.32
2022-11-30T03:41:21.148Z,8.44
2022-11-30T03:42:21.164Z,8.42
2022-11-30T03:43:21.221Z,8.36
2022-11-30T03:44:21.249Z,8.24
2022-11-30T03:45:21.326Z,8.28
2022-11-30T03:46:21.385Z,8.38
2022-11-30T03:47:21.310Z,8.49
2022-11-30T03:48:21.321Z,8.42
2022-11-30T03:49:21.320Z,8.35
2022-11-30T03:50:21.323Z,8.38
2022-11-30T03:51:21.318Z,8.34
2022-11-30T03:52:21.331Z,8.38
2022-11-30T03:53:21.321Z,8.42
2022-11-30T03:54:21.323Z,8.38
2022-11-30T03:55:21.323Z,8.34
2022-11-30T03:56:21.322Z,8.35
2022-11-30T03:57:22.290Z,8.39
2022-11-30T03:58:21.383Z,8.44
2022-11-30T03:59:21.382Z,8.39
2022-11-30T04:00:21.385Z,8.39
2022-11-30T04:01:21.414Z,8.39
2022-11-30T04:02:21.433Z,8.35
2022-11-30T04:03:21.508Z,8.36
2022-11-30T04:04:21.492Z,8.38
2022-11-30T04:05:21.494Z,8.44
2022-11-30T04:06:21.496Z,8.46
2022-11-30T04:07:21.515Z,8.46
2022-11-30T04:08:21.530Z,8.45
2022-11-30T04:09:21.535Z,8.52
2022-11-30T04:10:21.535Z,8.59
2022-11-30T04:11:21.545Z,8.61
2022-11-30T04:12:21.552Z,8.64
2022-11-30T04:13:21.554Z,8.68
2022-11-30T04:14:21.577Z,8.69
2022-11-30T04:15:21.585Z,8.74
2022-11-30T04:16:21.689Z,8.75
2022-11-30T04:17:21.636Z,8.77
2022-11-30T04:18:21.636Z,8.69
2022-11-30T04:19:21.695Z,8.52
2022-11-30T04:20:21.684Z,8.54
2022-11-30T04:21:21.698Z,8.50
2022-11-30T04:22:21.690Z,8.53
2022-11-30T04:23:21.696Z,8.59
2022-11-30T04:24:21.699Z,8.53
2022-11-30T04:25:21.739Z,8.38
2022-11-30T04:26:21.808Z,8.31
2022-11-30T04:27:21.876Z,8.27
2022-11-30T04:28:21.898Z,8.36
2022-11-30T04:29:21.899Z,8.31
2022-11-30T04:30:21.899Z,8.28
2022-11-30T04:31:21.950Z,8.28
2022-11-30T04:32:21.971Z,8.36
2022-11-30T04:33:21.955Z,8.38
2022-11-30T04:34:21.969Z,8.44
2022-11-30T04:35:21.971Z,8.44
2022-11-30T04:36:21.980Z,8.45
2022-11-30T04:37:21.980Z,8.53
2022-11-30T04:38:21.972Z,8.61
2022-11-30T04:39:22.000Z,8.66
2022-11-30T04:40:22.001Z,8.68
2022-11-30T04:41:22.011Z,8.69
2022-11-30T04:42:22.030Z,8.75
2022-11-30T04:43:22.032Z,8.71
2022-11-30T04:44:22.042Z,8.54
2022-11-30T04:45:22.072Z,8.41
2022-11-30T04:46:22.211Z,8.45
2022-11-30T04:47:22.141Z,8.49
2022-11-30T04:48:22.133Z,8.50
2022-11-30T04:49:22.172Z,8.60
2022-11-30T04:50:22.173Z,8.66
2022-11-30T04:51:22.182Z,8.63
2022-11-30T04:52:22.181Z,8.54
2022-11-30T04:53:22.174Z,8.64
2022-11-30T04:54:22.184Z,8.66
2022-11-30T04:55:22.203Z,8.63
2022-11-30T04:56:22.204Z,8.60
2022-11-30T04:57:22.205Z,8.52
2022-11-30T04:58:22.195Z,8.57
2022-11-30T04:59:22.205Z,8.59
2022-11-30T05:00:22.235Z,8.68
2022-11-30T05:01:22.285Z,8.69
2022-11-30T05:02:22.226Z,8.72
2022-11-30T05:03:22.237Z,8.75
2022-11-30T05:04:22.273Z,8.75
2022-11-30T05:05:22.287Z,8.64
2022-11-30T05:06:22.307Z,8.68
2022-11-30T05:07:22.342Z,8.74
2022-11-30T05:08:22.375Z,8.71
2022-11-30T05:09:22.387Z,8.69
2022-11-30T05:10:22.387Z,8.66
2022-11-30T05:11:22.407Z,8.74
2022-11-30T05:12:22.407Z,8.77
2022-11-30T05:13:22.420Z,8.69
2022-11-30T05:14:22.418Z,8.68
2022-11-30T05:15:22.435Z,8.71
2022-11-30T05:16:22.501Z,8.72
2022-11-30T05:17:22.440Z,8.75
2022-11-30T05:18:22.446Z,8.79
2022-11-30T05:19:22.451Z,8.81
2022-11-30T05:20:22.450Z,8.78
2022-11-30T05:21:22.450Z,8.75
2022-11-30T05:22:22.480Z,8.72
2022-11-30T05:23:22.493Z,8.68
2022-11-30T05:24:22.522Z,8.56
2022-11-30T05:25:22.523Z,8.49
2022-11-30T05:26:22.553Z,8.42
2022-11-30T05:27:22.975Z,8.39
2022-11-30T05:28:22.611Z,8.41
2022-11-30T05:29:22.621Z,8.38
2022-11-30T05:30:22.625Z,8.36
2022-11-30T05:31:22.767Z,8.28
2022-11-30T05:32:22.755Z,8.24
2022-11-30T05:33:22.775Z,8.27
2022-11-30T05:34:22.793Z,8.35
2022-11-30T05:35:22.804Z,8.41
2022-11-30T05:36:22.794Z,8.39
2022-11-30T05:37:22.854Z,8.35
2022-11-30T05:38:22.844Z,8.35
2022-11-30T05:39:22.856Z,8.41
2022-11-30T05:40:22.857Z,8.39
2022-11-30T05:41:22.854Z,8.42
2022-11-30T05:42:22.877Z,8.50
2022-11-30T05:43:22.864Z,8.54
2022-11-30T05:44:22.866Z,8.59
2022-11-30T05:45:22.873Z,8.53
2022-11-30T05:46:22.929Z,8.44
2022-11-30T05:47:22.867Z,8.44
2022-11-30T05:48:22.866Z,8.45
2022-11-30T05:49:22.874Z,8.39
2022-11-30T05:50:22.867Z,8.39
2022-11-30T05:51:22.869Z,8.36
2022-11-30T05:52:22.886Z,8.39
2022-11-30T05:53:22.898Z,8.32
2022-11-30T05:54:22.890Z,8.35
2022-11-30T05:55:22.877Z,8.38
2022-11-30T05:56:22.878Z,8.38
2022-11-30T05:57:22.909Z,8.46
2022-11-30T05:58:22.908Z,8.52
2022-11-30T05:59:22.920Z,8.49
2022-11-30T06:00:22.918Z,8.36
2022-11-30T06:01:22.918Z,8.39
2022-11-30T06:02:27.921Z,8.38
2022-11-30T06:03:23.057Z,8.45
2022-11-30T06:04:22.970Z,8.53
2022-11-30T06:05:22.969Z,8.52
2022-11-30T06:06:22.969Z,8.50
2022-11-30T06:07:23.011Z,8.56
2022-11-30T06:08:23.000Z,8.54
2022-11-30T06:09:23.011Z,8.49
2022-11-30T06:10:23.012Z,8.42
2022-11-30T06:11:23.010Z,8.36
2022-11-30T06:12:23.012Z,8.39
2022-11-30T06:13:28.597Z,8.44
2022-11-30T06:14:23.020Z,8.36
2022-11-30T06:15:23.034Z,8.38
2022-11-30T06:16:23.071Z,8.42
2022-11-30T06:17:23.083Z,8.45
2022-11-30T06:18:23.093Z,8.49
2022-11-30T06:19:23.092Z,8.52
2022-11-30T06:20:23.113Z,8.53
2022-11-30T06:21:24.903Z,8.46
2022-11-30T06:22:23.171Z,8.56
2022-11-30T06:23:23.174Z,8.53
2022-11-30T06:24:23.185Z,8.52
2022-11-30T06:25:23.194Z,8.50
2022-11-30T06:26:23.193Z,8.50
2022-11-30T06:27:23.193Z,8.53
2022-11-30T06:28:23.202Z,8.57
2022-11-30T06:29:23.224Z,8.60
2022-11-30T06:30:23.244Z,8.57
2022-11-30T06:31:23.301Z,8.56
2022-11-30T06:32:23.256Z,8.59
2022-11-30T06:33:23.268Z,8.54
2022-11-30T06:34:23.266Z,8.52
2022-11-30T06:35:23.287Z,8.54
2022-11-30T06:36:23.287Z,8.57
2022-11-30T06:37:23.294Z,8.61
2022-11-30T06:38:23.287Z,8.64
2022-11-30T06:39:42.989Z,8.63
2022-11-30T06:40:23.297Z,8.68
2022-11-30T06:41:23.324Z,8.69
2022-11-30T06:42:23.328Z,8.72
2022-11-30T06:43:23.329Z,8.71
2022-11-30T06:44:23.341Z,8.72
2022-11-30T06:45:23.346Z,8.74
2022-11-30T06:46:23.359Z,8.74
2022-11-30T06:47:23.359Z,8.75
2022-11-30T06:48:23.372Z,8.77
2022-11-30T06:49:23.371Z,8.77
2022-11-30T06:50:23.369Z,8.77
2022-11-30T06:51:23.399Z,8.78
2022-11-30T06:52:23.399Z,8.74
2022-11-30T06:53:23.412Z,8.74
2022-11-30T06:54:23.419Z,8.72
2022-11-30T06:55:23.421Z,8.75
2022-11-30T06:56:23.431Z,8.74
2022-11-30T06:57:23.430Z,8.72
2022-11-30T06:58:23.452Z,8.75
2022-11-30T06:59:23.451Z,8.74
2022-11-30T07:00:23.481Z,8.72
2022-11-30T07:01:23.551Z,8.72
2022-11-30T07:02:23.584Z,8.71
2022-11-30T07:03:23.612Z,8.75
2022-11-30T07:04:23.761Z,8.74
2022-11-30T07:05:23.694Z,8.72
2022-11-30T07:06:23.713Z,8.69
2022-11-30T07:07:23.791Z,8.71
2022-11-30T07:08:23.762Z,8.68
2022-11-30T07:09:23.803Z,8.64
2022-11-30T07:10:23.943Z,8.61
2022-11-30T07:11:23.874Z,8.54
2022-11-30T07:12:24.054Z,8.45
2022-11-30T07:13:23.905Z,8.42
2022-11-30T07:14:23.944Z,8.38
2022-11-30T07:15:23.998Z,8.35
2022-11-30T07:16:24.056Z,8.34
2022-11-30T07:17:24.016Z,8.32
2022-11-30T07:18:30.116Z,8.38
2022-11-30T07:19:24.060Z,8.39
2022-11-30T07:20:24.103Z,8.50
2022-11-30T07:21:24.137Z,8.56
2022-11-30T07:22:24.156Z,8.59
2022-11-30T07:23:24.226Z,8.63
2022-11-30T07:24:24.258Z,8.66
2022-11-30T07:25:24.288Z,8.66
2022-11-30T07:26:24.319Z,8.69
2022-11-30T07:27:24.379Z,8.69
2022-11-30T07:28:24.430Z,8.74
2022-11-30T07:29:24.393Z,8.74
2022-11-30T07:30:24.448Z,8.74
2022-11-30T07:31:24.558Z,8.71
2022-11-30T07:32:24.518Z,8.69
2022-11-30T07:33:24.579Z,8.68
2022-11-30T07:34:24.578Z,8.63
2022-11-30T07:35:24.564Z,8.61
2022-11-30T07:36:24.611Z,8.61
2022-11-30T07:37:24.670Z,8.61
2022-11-30T07:38:24.680Z,8.63
2022-11-30T07:39:24.712Z,8.64
2022-11-30T07:40:24.734Z,8.68
2022-11-30T07:41:24.742Z,8.66
2022-11-30T07:42:24.757Z,8.66
2022-11-30T07:43:24.771Z,8.66
2022-11-30T07:44:24.811Z,8.64
2022-11-30T07:45:24.838Z,8.68
2022-11-30T07:46:24.852Z,8.61
2022-11-30T07:47:24.862Z,8.57
2022-11-30T07:48:24.882Z,8.57
2022-11-30T07:49:24.904Z,8.60
2022-11-30T07:50:24.924Z,8.59
2022-11-30T07:51:24.943Z,8.53
2022-11-30T07:52:24.959Z,8.59
2022-11-30T07:53:24.983Z,8.59
2022-11-30T07:54:25.034Z,8.63
2022-11-30T07:55:25.003Z,8.63
2022-11-30T07:56:25.045Z,8.57
2022-11-30T07:57:25.077Z,8.61
2022-11-30T07:58:25.106Z,8.66
2022-11-30T07:59:25.177Z,8.63
2022-11-30T08:00:25.196Z,8.66
2022-11-30T08:01:25.270Z,8.61
2022-11-30T08:02:25.307Z,8.59
2022-11-30T08:03:25.276Z,8.56
2022-11-30T08:04:25.333Z,8.52
2022-11-30T08:05:25.306Z,8.45
2022-11-30T08:06:25.377Z,8.35
2022-11-30T08:07:25.429Z,8.36
2022-11-30T08:08:25.457Z,8.42
2022-11-30T08:09:25.497Z,8.49
2022-11-30T08:10:25.711Z,8.49
2022-11-30T08:11:25.560Z,8.46
2022-11-30T08:12:25.607Z,8.54
2022-11-30T08:13:25.679Z,8.59
2022-11-30T08:14:25.749Z,8.64
2022-11-30T08:15:32.055Z,8.60
2022-11-30T08:16:25.893Z,8.54
2022-11-30T08:17:25.878Z,8.53
2022-11-30T08:18:25.906Z,8.53
2022-11-30T08:19:25.950Z,8.54
2022-11-30T08:20:26.029Z,8.39
2022-11-30T08:21:26.030Z,8.31
2022-11-30T08:22:26.010Z,8.32
2022-11-30T08:23:26.000Z,8.14
2022-11-30T08:24:26.070Z,8.11
2022-11-30T08:25:26.031Z,8.14
2022-11-30T08:26:26.063Z,8.24
2022-11-30T08:27:26.085Z,8.27
2022-11-30T08:28:26.106Z,8.28
2022-11-30T08:29:26.123Z,8.26
2022-11-30T08:30:27.943Z,8.26
2022-11-30T08:31:26.278Z,8.27
2022-11-30T08:32:26.273Z,8.27
2022-11-30T08:33:29.352Z,8.24
2022-11-30T08:34:26.333Z,8.28
2022-11-30T08:35:26.393Z,8.27
2022-11-30T08:36:26.475Z,8.32
2022-11-30T08:37:26.444Z,8.32
2022-11-30T08:38:26.514Z,8.34
2022-11-30T08:39:26.587Z,8.32
2022-11-30T08:40:26.612Z,8.18
2022-11-30T08:41:26.665Z,8.17
2022-11-30T08:42:26.686Z,8.24
2022-11-30T08:43:26.714Z,8.21
2022-11-30T08:44:26.735Z,8.23
2022-11-30T08:45:26.807Z,8.27
2022-11-30T08:47:26.916Z,8.31
2022-11-30T08:48:26.932Z,8.38
2022-11-30T08:49:26.986Z,8.42
2022-11-30T08:50:27.016Z,8.38
2022-11-30T08:51:27.057Z,8.34
2022-11-30T08:52:27.078Z,8.34
2022-11-30T08:53:27.127Z,8.34
2022-11-30T08:54:27.160Z,8.42
2022-11-30T08:55:27.190Z,8.41
2022-11-30T08:56:27.217Z,8.44
2022-11-30T08:57:27.247Z,8.34
2022-11-30T08:58:27.288Z,8.35
2022-11-30T08:59:27.320Z,8.31
2022-11-30T09:00:27.341Z,8.36
2022-11-30T09:01:29.894Z,8.41
2022-11-30T09:02:27.501Z,8.39
2022-11-30T09:03:27.430Z,8.41
2022-11-30T09:04:27.431Z,8.36
2022-11-30T09:05:27.483Z,8.35
2022-11-30T09:06:27.490Z,8.44
2022-11-30T09:07:27.572Z,8.50
2022-11-30T09:08:27.580Z,8.46
2022-11-30T09:09:27.630Z,8.39
2022-11-30T09:10:27.671Z,8.39
2022-11-30T09:11:27.720Z,8.36
2022-11-30T09:12:27.772Z,8.24
2022-11-30T09:13:27.852Z,8.20
2022-11-30T09:14:27.909Z,8.16
2022-11-30T09:15:27.963Z,8.05
2022-11-30T09:16:28.023Z,8.13
2022-11-30T09:17:28.042Z,8.17
2022-11-30T09:18:28.084Z,8.05
2022-11-30T09:19:28.108Z,8.09
2022-11-30T09:20:28.103Z,8.11
2022-11-30T09:21:28.171Z,8.06
2022-11-30T09:22:28.134Z,8.14
2022-11-30T09:23:28.133Z,8.09
2022-11-30T09:24:28.203Z,8.08
2022-11-30T09:25:28.255Z,8.03
2022-11-30T09:26:28.314Z,8.08
2022-11-30T09:27:28.364Z,8.16
2022-11-30T09:28:28.406Z,8.17
2022-11-30T09:29:28.461Z,8.06
2022-11-30T09:30:28.540Z,7.95
2022-11-30T09:31:28.505Z,7.99
2022-11-30T09:32:28.541Z,8.09
2022-11-30T09:33:28.566Z,8.06
2022-11-30T09:34:28.646Z,8.14
2022-11-30T09:35:28.638Z,8.16
2022-11-30T09:36:28.676Z,8.20
2022-11-30T09:37:28.717Z,8.23
2022-11-30T09:38:28.727Z,8.26
2022-11-30T09:39:28.737Z,8.31
2022-11-30T09:40:33.907Z,8.31
2022-11-30T09:41:28.809Z,8.18
2022-11-30T09:42:28.809Z,8.26
2022-11-30T09:43:28.862Z,8.18
2022-11-30T09:44:28.848Z,8.13
2022-11-30T09:45:28.861Z,8.03
2022-11-30T09:46:28.988Z,8.08
2022-11-30T09:47:31.905Z,8.08
2022-11-30T09:48:29.010Z,8.08
2022-11-30T09:49:29.088Z,8.01
2022-11-30T09:50:29.080Z,7.98
2022-11-30T09:51:29.080Z,7.85
2022-11-30T09:52:29.072Z,7.83
2022-11-30T09:53:30.050Z,7.90
2022-11-30T09:54:29.169Z,7.93
2022-11-30T09:55:29.152Z,8.02
2022-11-30T09:56:29.222Z,8.13
2022-11-30T09:57:29.221Z,8.16
2022-11-30T09:58:29.282Z,8.21
2022-11-30T09:59:29.333Z,8.11
2022-11-30T10:00:29.312Z,8.05
2022-11-30T10:01:32.638Z,8.03
2022-11-30T10:02:29.481Z,8.02
2022-11-30T10:03:29.396Z,8.01
2022-11-30T10:04:29.394Z,8.01
2022-11-30T10:05:29.384Z,8.05
2022-11-30T10:06:29.449Z,8.02
2022-11-30T10:07:29.568Z,8.03
2022-11-30T10:08:29.525Z,7.96
2022-11-30T10:09:29.545Z,7.98
2022-11-30T10:10:32.660Z,7.96
2022-11-30T10:11:30.438Z,8.03
2022-11-30T10:12:29.616Z,7.95
2022-11-30T10:13:29.628Z,7.84
2022-11-30T10:14:29.635Z,7.84
2022-11-30T10:15:29.626Z,7.88
2022-11-30T10:16:29.718Z,7.90
2022-11-30T10:17:29.627Z,7.96
2022-11-30T10:18:29.637Z,8.05
2022-11-30T10:19:29.626Z,8.08
2022-11-30T10:20:29.679Z,8.06
2022-11-30T10:21:29.717Z,8.05
2022-11-30T10:22:29.757Z,7.99
2022-11-30T10:23:29.797Z,7.96
2022-11-30T10:24:29.960Z,7.88
2022-11-30T10:25:29.878Z,7.96
2022-11-30T10:26:29.920Z,7.95
2022-11-30T10:27:29.959Z,7.78
2022-11-30T10:28:47.985Z,7.87
2022-11-30T10:29:30.031Z,7.93
2022-11-30T10:30:30.050Z,7.98
2022-11-30T10:31:30.172Z,8.03
2022-11-30T10:32:30.149Z,8.03
2022-11-30T10:33:35.326Z,7.96
2022-11-30T10:34:30.180Z,8.08
2022-11-30T10:35:30.199Z,8.02
2022-11-30T10:36:30.204Z,7.99
2022-11-30T10:37:30.200Z,8.01
2022-11-30T10:38:30.200Z,8.09
2022-11-30T10:39:30.199Z,8.09
2022-11-30T10:40:30.192Z,8.02
2022-11-30T10:41:30.211Z,8.05
2022-11-30T10:42:30.237Z,8.08
2022-11-30T10:43:30.234Z,8.13
2022-11-30T10:44:30.232Z,8.17
2022-11-30T10:45:30.232Z,8.24
2022-11-30T10:46:30.298Z,8.21
2022-11-30T10:47:30.251Z,8.08
2022-11-30T10:48:30.255Z,8.08
2022-11-30T10:49:30.314Z,8.01
2022-11-30T10:50:30.357Z,8.11
2022-11-30T10:51:30.403Z,8.11
2022-11-30T10:52:30.444Z,8.14
2022-11-30T10:53:30.493Z,8.20
2022-11-30T10:54:30.545Z,8.17
2022-11-30T10:55:30.595Z,8.17
2022-11-30T10:56:30.646Z,8.14
2022-11-30T10:57:30.685Z,8.16
2022-11-30T10:58:30.755Z,8.08
2022-11-30T10:59:30.796Z,8.09
2022-11-30T11:00:30.856Z,8.14
2022-11-30T11:01:30.938Z,8.08
2022-11-30T11:02:30.937Z,8.09
2022-11-30T11:03:30.887Z,8.13
2022-11-30T11:04:30.933Z,8.26
2022-11-30T11:05:30.961Z,8.21
2022-11-30T11:06:30.978Z,8.32
2022-11-30T11:07:31.068Z,8.35
2022-11-30T11:08:30.973Z,8.34
2022-11-30T11:09:30.965Z,8.34
2022-11-30T11:10:30.970Z,8.23
2022-11-30T11:11:30.979Z,8.27
2022-11-30T11:12:31.027Z,8.41
2022-11-30T11:13:31.029Z,8.53
2022-11-30T11:14:35.004Z,8.53
2022-11-30T11:15:31.120Z,8.38
2022-11-30T11:16:31.093Z,8.44
2022-11-30T11:17:31.035Z,8.45
2022-11-30T11:18:31.041Z,8.39
2022-11-30T11:19:31.060Z,8.38
2022-11-30T11:20:31.282Z,8.44
2022-11-30T11:21:31.123Z,8.35
2022-11-30T11:22:31.180Z,8.39
2022-11-30T11:23:31.241Z,8.27
2022-11-30T11:24:31.281Z,8.28
2022-11-30T11:25:31.361Z,8.34
2022-11-30T11:26:31.345Z,8.34
2022-11-30T11:27:31.342Z,8.21
2022-11-30T11:28:31.381Z,8.24
2022-11-30T11:29:31.469Z,8.18
2022-11-30T11:30:31.453Z,8.16
2022-11-30T11:31:31.527Z,8.24
2022-11-30T11:32:31.434Z,8.20
2022-11-30T11:33:31.473Z,8.21
2022-11-30T11:34:31.523Z,8.18
2022-11-30T11:35:31.583Z,8.23
2022-11-30T11:36:31.605Z,8.27
2022-11-30T11:37:31.572Z,8.36
2022-11-30T11:38:31.678Z,8.27
2022-11-30T11:39:31.659Z,8.34
2022-11-30T11:40:31.726Z,8.42
2022-11-30T11:41:31.726Z,8.35
2022-11-30T11:42:31.739Z,8.38
2022-11-30T11:43:31.795Z,8.46
2022-11-30T11:44:31.876Z,8.56
2022-11-30T11:45:31.896Z,8.56
2022-11-30T11:46:32.008Z,8.56
2022-11-30T11:47:31.964Z,8.52
2022-11-30T11:48:31.957Z,8.56
2022-11-30T11:49:32.017Z,8.49
2022-11-30T11:51:04.968Z,8.42
2022-11-30T11:51:32.088Z,8.39
2022-11-30T11:52:32.120Z,8.26
2022-11-30T11:53:32.201Z,8.23
2022-11-30T11:54:32.168Z,8.27
2022-11-30T11:55:32.218Z,8.34
2022-11-30T11:56:32.272Z,8.39
2022-11-30T11:57:32.533Z,8.38
2022-11-30T11:58:32.378Z,8.24
2022-11-30T11:59:32.945Z,8.05
2022-11-30T12:00:32.432Z,8.11
2022-11-30T12:01:39.692Z,8.03
2022-11-30T12:02:32.537Z,8.13
2022-11-30T12:03:32.461Z,8.13
2022-11-30T12:04:32.589Z,8.18
2022-11-30T12:05:32.462Z,7.91
2022-11-30T12:06:32.530Z,7.91
2022-11-30T12:07:32.562Z,7.85
2022-11-30T12:08:32.560Z,7.78
2022-11-30T12:09:32.641Z,7.81
2022-11-30T12:11:32.682Z,7.77
2022-11-30T12:12:32.691Z,7.75
2022-11-30T12:13:32.692Z,7.87
2022-11-30T12:14:32.692Z,7.95
2022-11-30T12:15:32.682Z,7.87
2022-11-30T12:16:32.763Z,7.83
2022-11-30T12:17:32.703Z,7.98
2022-11-30T12:18:32.791Z,7.93
2022-11-30T12:19:32.767Z,7.85
2022-11-30T12:20:32.824Z,7.91
2022-11-30T12:21:32.872Z,7.98
2022-11-30T12:22:32.938Z,8.05
2022-11-30T12:23:32.974Z,8.09
2022-11-30T12:24:33.050Z,8.16
2022-11-30T12:25:33.086Z,8.13
2022-11-30T12:26:33.151Z,8.17
2022-11-30T12:27:33.216Z,8.18
2022-11-30T12:28:33.176Z,7.99
2022-11-30T12:29:33.226Z,7.96
2022-11-30T12:30:33.279Z,8.03
2022-11-30T12:31:33.397Z,8.13
2022-11-30T12:32:33.367Z,8.23
2022-11-30T12:33:33.451Z,8.23
2022-11-30T12:34:33.418Z,8.18
2022-11-30T12:35:33.408Z,8.13
2022-11-30T12:36:33.470Z,8.03
2022-11-30T12:37:33.507Z,8.01
2022-11-30T12:38:33.545Z,7.98
2022-11-30T12:39:33.537Z,7.93
2022-11-30T12:40:33.538Z,7.96
2022-11-30T12:41:33.537Z,7.93
2022-11-30T12:42:33.540Z,7.95
2022-11-30T12:43:33.558Z,7.96
2022-11-30T12:44:38.513Z,7.96
2022-11-30T12:45:33.600Z,8.03
2022-11-30T12:46:33.654Z,8.08
2022-11-30T12:47:33.640Z,8.08
2022-11-30T12:48:33.696Z,8.06
2022-11-30T12:49:33.699Z,7.98
2022-11-30T12:50:33.739Z,8.01
2022-11-30T12:51:33.770Z,7.99
2022-11-30T12:52:33.758Z,8.01
2022-11-30T12:53:33.772Z,8.03
2022-11-30T12:54:33.822Z,8.02
2022-11-30T12:55:33.822Z,7.96
2022-11-30T12:56:33.872Z,8.02
2022-11-30T12:57:33.922Z,8.06
2022-11-30T12:58:33.930Z,8.13
2022-11-30T12:59:33.927Z,8.06
2022-11-30T13:00:34.009Z,8.02
2022-11-30T13:01:34.054Z,8.05
2022-11-30T13:02:34.034Z,7.96
2022-11-30T13:03:34.086Z,7.91
2022-11-30T13:04:34.133Z,7.83
2022-11-30T13:05:34.148Z,7.87
2022-11-30T13:06:34.213Z,7.90
2022-11-30T13:07:34.234Z,7.93
2022-11-30T13:08:34.265Z,7.99
2022-11-30T13:09:34.325Z,8.02
2022-11-30T13:10:34.388Z,8.11
2022-11-30T13:11:34.455Z,8.11
2022-11-30T13:12:34.425Z,7.98
2022-11-30T13:13:34.426Z,7.99
2022-11-30T13:14:34.437Z,8.03
2022-11-30T13:15:34.467Z,8.01
2022-11-30T13:16:34.507Z,7.95
2022-11-30T13:17:34.487Z,7.95
2022-11-30T13:18:34.487Z,8.02
2022-11-30T13:19:34.545Z,7.98
2022-11-30T13:20:34.597Z,8.02